Time;durP1;ratioP1;P1;durP2;ratioP2;P2;SDS_P1;SDS_P2;PMS_P1;PMS_P2;Temp;Humidity;BMP_temperature;BMP_pressure;BME280_temperature;BME280_humidity;BME280_pressure;Samples;Min_cycle;Max_cycle;Signal;HPM_P1;HPM_P2
2022/10/20 00:03:42;;;;;;;20.20;14.40;;;7.30;99.90;;;;;;2614570;54;20146;-77
2022/10/20 00:09:29;;;;;;;19.50;14.20;;;7.30;99.90;;;;;;2615154;54;20407;-76
2022/10/20 00:15:16;;;;;;;19.40;13.03;;;7.30;99.90;;;;;;2615947;39;20629;-78
2022/10/20 00:27:37;;;;;;;20.00;14.03;;;7.20;99.90;;;;;;2615226;54;20372;-77
2022/10/20 00:33:25;;;;;;;19.13;12.20;;;7.20;99.90;;;;;;2615248;54;20142;-76
2022/10/20 00:39:12;;;;;;;21.00;13.00;;;7.10;99.90;;;;;;2614650;54;20387;-77
2022/10/20 00:45:00;;;;;;;18.23;12.50;;;7.10;99.90;;;;;;2614748;54;20682;-76
2022/10/20 00:50:51;;;;;;;23.80;15.20;;;7.10;99.90;;;;;;2614238;54;20599;-77
2022/10/20 00:56:42;;;;;;;20.73;13.93;;;7.10;99.90;;;;;;2615163;54;20387;-76
2022/10/20 01:02:29;;;;;;;26.40;14.90;;;7.00;99.90;;;;;;2615650;54;20354;-77
2022/10/20 01:08:17;;;;;;;17.70;13.40;;;7.00;99.90;;;;;;2615730;54;20190;-77
2022/10/20 01:25:19;;;;;;;18.57;12.80;;;6.70;99.90;;;;;;2613306;54;20415;-76
2022/10/20 01:37:46;;;;;;;16.43;12.53;;;6.80;99.90;;;;;;2613896;54;20386;-75
2022/10/20 01:43:36;;;;;;;20.60;13.03;;;6.70;99.90;;;;;;2613106;54;20399;-77
2022/10/20 01:49:24;;;;;;;23.67;14.00;;;6.60;99.90;;;;;;2614304;54;20398;-76
2022/10/20 01:55:14;;;;;;;20.87;12.50;;;6.70;99.90;;;;;;2611554;54;20427;-80
2022/10/20 02:07:41;;;;;;;23.33;13.20;;;6.70;99.90;;;;;;2616482;54;20378;-79
2022/10/20 02:10:45;;;;;;;21.33;14.50;;;6.70;99.90;;;;;;2614849;54;20433;-79
2022/10/20 02:13:12;;;;;;;21.83;13.33;;;6.70;99.90;;;;;;2617041;54;20410;-78
2022/10/20 02:19:00;;;;;;;18.03;12.67;;;6.70;99.90;;;;;;2615791;54;20366;-79
2022/10/20 02:24:50;;;;;;;17.83;12.77;;;6.60;99.90;;;;;;2616271;54;20418;-77
2022/10/20 02:30:39;;;;;;;16.57;12.83;;;6.70;99.90;;;;;;2614654;39;20788;-77
2022/10/20 02:36:28;;;;;;;18.77;14.13;;;6.70;99.90;;;;;;2616197;54;20363;-75
2022/10/20 02:42:16;;;;;;;24.40;15.17;;;6.70;99.90;;;;;;2614708;54;20402;-75
2022/10/20 03:01:44;;;;;;;17.23;13.17;;;6.70;99.90;;;;;;2614414;39;20750;-76
2022/10/20 03:07:31;;;;;;;16.43;13.10;;;6.70;99.90;;;;;;2615892;54;20169;-77
2022/10/20 03:13:19;;;;;;;18.10;13.50;;;6.60;99.90;;;;;;2615198;54;20127;-78
2022/10/20 03:19:06;;;;;;;18.00;13.13;;;6.60;99.90;;;;;;2615200;54;20150;-77
2022/10/20 03:24:53;;;;;;;30.00;14.50;;;6.70;99.90;;;;;;2614624;54;20126;-78
2022/10/20 03:30:40;;;;;;;21.10;14.80;;;6.50;99.90;;;;;;2615806;54;20669;-76
2022/10/20 03:36:29;;;;;;;25.13;14.40;;;6.60;99.90;;;;;;2615620;54;20114;-76
2022/10/20 03:42:17;;;;;;;23.10;15.23;;;6.70;99.90;;;;;;2617070;39;20758;-76
2022/10/20 03:51:57;;;;;;;26.33;14.87;;;6.60;99.90;;;;;;2615355;54;20431;-78
2022/10/20 03:57:45;;;;;;;20.13;13.93;;;6.60;99.90;;;;;;2616829;54;20371;-79
2022/10/20 04:03:33;;;;;;;26.33;14.57;;;6.60;99.90;;;;;;2615204;54;20154;-78
2022/10/20 04:09:20;;;;;;;18.23;13.50;;;6.60;99.90;;;;;;2616644;54;20153;-76
2022/10/20 04:15:10;;;;;;;21.70;14.60;;;6.70;99.90;;;;;;2616031;54;20114;-78
2022/10/20 04:20:58;;;;;;;17.63;14.60;;;6.80;99.90;;;;;;2614560;54;20418;-77
2022/10/20 04:26:47;;;;;;;22.90;14.77;;;6.90;99.90;;;;;;2615755;54;20408;-78
2022/10/20 04:32:35;;;;;;;19.60;15.57;;;7.00;99.90;;;;;;2614569;54;20395;-76
2022/10/20 04:38:23;;;;;;;28.60;16.90;;;7.00;99.90;;;;;;2615315;54;20254;-76
2022/10/20 04:44:10;;;;;;;22.83;16.37;;;7.10;99.90;;;;;;2615500;54;20130;-78
2022/10/20 04:49:58;;;;;;;21.20;16.43;;;7.00;99.90;;;;;;2615766;54;20125;-77
2022/10/20 04:59:15;;;;;;;20.70;14.77;;;7.10;99.90;;;;;;2615046;54;20962;-76
2022/10/20 05:05:03;;;;;;;21.07;14.80;;;7.10;99.90;;;;;;2615873;54;20971;-77
2022/10/20 05:10:52;;;;;;;19.23;15.03;;;7.20;99.90;;;;;;2615225;54;20423;-79
2022/10/20 05:16:40;;;;;;;23.13;15.73;;;7.20;99.90;;;;;;2615175;54;20382;-77
2022/10/20 05:22:29;;;;;;;19.43;14.70;;;7.30;99.90;;;;;;2614893;54;20138;-78
2022/10/20 05:28:17;;;;;;;19.67;15.63;;;7.20;99.90;;;;;;2613613;54;20915;-77
2022/10/20 05:34:05;;;;;;;19.13;13.83;;;7.30;99.90;;;;;;2610465;46;20267;-77
2022/10/20 05:39:53;;;;;;;20.07;14.53;;;7.30;99.90;;;;;;2610920;54;21433;-77
2022/10/20 05:45:41;;;;;;;23.67;14.37;;;7.30;99.90;;;;;;2615492;39;20526;-78
2022/10/20 05:51:33;;;;;;;20.30;15.83;;;7.30;99.90;;;;;;2615412;54;20430;-77
2022/10/20 05:54:45;;;;;;;24.70;15.63;;;7.30;99.90;;;;;;2615766;54;20396;-78
2022/10/20 05:57:10;;;;;;;18.63;13.70;;;7.30;99.90;;;;;;2615129;54;20575;-77
2022/10/20 06:02:58;;;;;;;22.53;15.33;;;7.20;99.90;;;;;;2615387;54;20154;-78
2022/10/20 06:08:47;;;;;;;23.57;16.27;;;7.20;99.90;;;;;;2615749;54;20165;-77
2022/10/20 06:14:34;;;;;;;25.17;15.90;;;7.30;99.90;;;;;;2615208;54;20374;-77
2022/10/20 06:20:22;;;;;;;20.90;15.60;;;7.30;99.90;;;;;;2614646;54;20131;-77
2022/10/20 06:26:12;;;;;;;21.70;15.70;;;7.40;99.90;;;;;;2615435;54;20131;-77
2022/10/20 06:32:00;;;;;;;22.03;15.07;;;7.40;99.90;;;;;;2611085;39;20795;-77
2022/10/20 06:37:47;;;;;;;31.80;15.87;;;7.60;99.90;;;;;;2614927;54;20126;-76
2022/10/20 06:43:35;;;;;;;24.10;15.53;;;7.70;99.90;;;;;;2612913;54;20182;-76
2022/10/20 06:49:23;;;;;;;20.87;15.43;;;7.90;99.90;;;;;;2615670;54;20394;-77
2022/10/20 06:59:17;;;;;;;24.33;15.30;;;8.10;99.90;;;;;;2611167;54;20439;-77
2022/10/20 07:05:05;;;;;;;24.80;16.43;;;8.20;99.90;;;;;;2613902;54;20987;-76
2022/10/20 07:11:05;;;;;;;20.07;15.37;;;8.50;99.90;;;;;;2615450;54;20406;-76
2022/10/20 07:16:52;;;;;;;20.67;15.97;;;8.70;99.90;;;;;;2614543;54;20419;-76
2022/10/20 07:22:40;;;;;;;22.97;16.20;;;8.70;99.90;;;;;;2615061;54;20134;-77
2022/10/20 07:28:28;;;;;;;22.30;16.20;;;9.00;99.90;;;;;;2615700;39;20606;-76
2022/10/20 07:34:18;;;;;;;19.70;14.73;;;9.40;99.90;;;;;;2615413;54;20464;-77
2022/10/20 07:40:06;;;;;;;20.23;13.43;;;9.80;99.90;;;;;;2616812;54;20415;-81
2022/10/20 07:45:54;;;;;;;18.00;14.50;;;10.00;99.90;;;;;;2615361;54;20434;-79
2022/10/20 07:51:41;;;;;;;24.30;12.67;;;10.40;99.90;;;;;;2614525;54;20138;-76
2022/10/20 07:54:45;;;;;;;15.63;12.00;;;10.50;99.90;;;;;;2615377;46;20427;-78
2022/10/20 07:57:11;;;;;;;14.77;12.13;;;10.60;99.90;;;;;;2614394;54;20937;-76
2022/10/20 08:02:59;;;;;;;20.27;12.57;;;11.90;99.90;;;;;;2612887;54;20139;-78
2022/10/20 08:08:47;;;;;;;16.10;12.70;;;13.30;99.90;;;;;;2615281;39;20511;-76
2022/10/20 08:14:36;;;;;;;12.67;11.37;;;12.90;99.90;;;;;;2615411;54;20531;-77
2022/10/20 08:20:24;;;;;;;13.70;10.20;;;13.00;99.90;;;;;;2614490;54;20411;-76
2022/10/20 08:26:19;;;;;;;10.77;9.67;;;13.70;99.90;;;;;;2614279;54;20142;-77
2022/10/20 08:32:07;;;;;;;17.80;10.60;;;14.60;99.90;;;;;;2615165;54;20536;-77
2022/10/20 08:37:55;;;;;;;14.37;9.50;;;15.10;99.90;;;;;;2615464;54;20438;-77
2022/10/20 08:43:47;;;;;;;14.83;8.93;;;15.90;99.90;;;;;;2613573;54;20131;-77
2022/10/20 08:49:34;;;;;;;9.10;7.93;;;16.50;99.90;;;;;;2613804;54;20394;-76
2022/10/20 09:05:48;;;;;;;9.77;8.87;;;16.60;99.90;;;;;;2613719;39;20973;-78
2022/10/20 09:11:39;;;;;;;10.13;9.30;;;17.00;99.90;;;;;;2614312;39;20799;-78
2022/10/20 09:17:26;;;;;;;10.93;9.90;;;18.30;99.90;;;;;;2614127;54;20418;-78
2022/10/20 09:26:44;;;;;;;10.20;9.30;;;16.30;99.90;;;;;;2614590;54;20395;-78
2022/10/20 09:32:35;;;;;;;10.37;9.50;;;16.40;99.90;;;;;;2619022;39;20833;-81
2022/10/20 09:38:28;;;;;;;9.47;8.67;;;16.50;99.90;;;;;;2616047;54;20986;-78
2022/10/20 09:44:23;;;;;;;10.30;9.43;;;16.40;99.90;;;;;;2615553;54;20422;-77
2022/10/20 10:00:04;;;;;;;11.80;9.57;;;16.60;99.90;;;;;;2615902;54;20387;-78
2022/10/20 10:05:57;;;;;;;11.10;10.00;;;16.50;99.90;;;;;;2615470;54;20375;-78
2022/10/20 10:11:45;;;;;;;10.30;9.50;;;16.60;99.90;;;;;;2615134;54;20500;-82
2022/10/20 10:27:26;;;;;;;10.80;9.67;;;16.10;99.90;;;;;;2615050;54;20488;-80
2022/10/20 10:33:28;;;;;;;10.27;9.10;;;16.00;99.90;;;;;;2616205;39;20788;-79
2022/10/20 10:39:15;;;;;;;10.33;9.37;;;16.00;99.90;;;;;;2614421;54;20519;-79
2022/10/20 10:58:25;;;;;;;10.03;8.70;;;16.40;99.90;;;;;;2614719;54;20391;-78
2022/10/20 11:01:06;;;;;;;11.43;9.80;;;16.50;99.90;;;;;;2615201;54;20596;-79
2022/10/20 11:07:30;;;;;;;11.67;10.57;;;16.40;99.90;;;;;;2614833;54;20399;-76
2022/10/20 11:13:30;;;;;;;11.57;10.63;;;16.20;99.90;;;;;;2614225;54;20520;-79
2022/10/20 11:26:01;;;;;;;33.77;10.77;;;16.20;99.90;;;;;;2610045;54;20509;-79
2022/10/20 11:44:38;;;;;;;14.30;11.30;;;16.20;99.90;;;;;;2615552;54;20395;-77
2022/10/20 11:50:26;;;;;;;11.03;9.70;;;16.20;99.90;;;;;;2615099;54;20383;-78
2022/10/20 12:25:41;;;;;;;13.87;10.77;;;15.20;99.90;;;;;;2614907;54;20444;-80
2022/10/20 12:32:05;;;;;;;13.27;11.47;;;15.00;99.90;;;;;;2614691;54;20745;-80
2022/10/20 12:38:01;;;;;;;15.70;10.70;;;14.90;99.90;;;;;;2613713;54;20399;-80
2022/10/20 12:43:53;;;;;;;15.80;12.77;;;14.70;99.90;;;;;;2613738;54;20411;-79
2022/10/20 12:59:37;;;;;;;12.00;10.80;;;14.60;99.90;;;;;;2616255;54;20399;-80
2022/10/20 13:05:45;;;;;;;16.43;11.80;;;14.70;99.90;;;;;;2617107;54;20382;-82
2022/10/20 13:11:39;;;;;;;14.07;11.97;;;14.80;99.90;;;;;;2617547;54;20391;-82
2022/10/20 13:28:24;;;;;;;16.37;13.80;;;15.30;99.90;;;;;;2615130;54;20406;-80
2022/10/20 13:53:48;;;;;;;13.10;11.63;;;16.20;99.90;;;;;;2614676;54;20391;-80
2022/10/20 13:59:36;;;;;;;12.93;10.23;;;16.60;99.90;;;;;;2617014;54;20395;-78
2022/10/20 14:05:26;;;;;;;13.43;10.30;;;16.40;99.90;;;;;;2616442;39;20583;-78
2022/10/20 14:11:14;;;;;;;11.60;10.40;;;16.40;99.90;;;;;;2617204;54;20496;-80
2022/10/20 14:17:04;;;;;;;12.70;10.57;;;16.40;99.90;;;;;;2616364;54;20130;-80
2022/10/20 14:22:53;;;;;;;13.07;9.40;;;19.60;99.90;;;;;;2616740;54;20448;-79
2022/10/20 14:28:43;;;;;;;11.23;8.70;;;20.60;99.90;;;;;;2616459;54;20391;-81
2022/10/20 14:34:34;;;;;;;12.67;9.50;;;19.60;99.90;;;;;;2617695;39;20869;-80
2022/10/20 14:40:27;;;;;;;9.13;8.20;;;21.00;99.90;;;;;;2618563;54;20403;-81
2022/10/20 14:52:47;;;;;;;14.00;9.70;;;19.40;99.90;;;;;;2616863;54;20900;-80
2022/10/20 15:05:20;;;;;;;10.00;8.80;;;20.70;99.90;;;;;;2617846;54;20415;-81
2022/10/20 15:11:21;;;;;;;10.20;9.20;;;20.30;99.90;;;;;;2618239;54;20584;-82
2022/10/20 15:17:31;;;;;;;11.67;10.50;;;20.10;99.90;;;;;;2619238;39;20782;-81
2022/10/20 15:23:27;;;;;;;11.47;9.87;;;19.90;99.90;;;;;;2616615;54;20403;-80
2022/10/20 15:29:16;;;;;;;11.43;9.63;;;17.90;99.90;;;;;;2617071;54;20990;-81
2022/10/20 15:47:48;;;;;;;14.00;9.73;;;16.70;99.90;;;;;;2614533;54;20380;-80
2022/10/20 15:53:35;;;;;;;13.73;9.20;;;16.60;99.90;;;;;;2617020;54;20122;-81
2022/10/20 16:00:00;;;;;;;13.00;10.57;;;16.50;99.90;;;;;;2615105;54;20263;-80
2022/10/20 16:02:44;;;;;;;17.50;10.17;;;16.30;99.90;;;;;;2612797;54;20921;-79
2022/10/20 16:08:31;;;;;;;14.60;12.10;;;16.10;99.90;;;;;;2613024;39;21006;-77
2022/10/20 16:14:18;;;;;;;12.77;8.83;;;16.00;99.90;;;;;;2612085;54;20491;-80
2022/10/20 16:20:06;;;;;;;12.37;9.33;;;15.80;99.90;;;;;;2612256;54;20250;-80
2022/10/20 16:25:54;;;;;;;16.47;10.57;;;15.60;99.90;;;;;;2614197;54;20507;-81
2022/10/20 16:31:41;;;;;;;12.97;9.67;;;15.60;99.90;;;;;;2615955;39;20545;-83
2022/10/20 16:37:31;;;;;;;11.33;9.07;;;15.50;99.90;;;;;;2617247;54;20146;-81
2022/10/20 16:43:18;;;;;;;15.17;10.90;;;15.40;99.90;;;;;;2615621;54;20491;-80
2022/10/20 16:49:06;;;;;;;15.97;10.80;;;15.30;99.90;;;;;;2616456;54;20121;-80
2022/10/20 16:54:54;;;;;;;15.97;11.73;;;15.20;99.90;;;;;;2616415;54;20149;-79
2022/10/20 16:58:10;;;;;;;11.63;10.43;;;15.10;99.90;;;;;;2615995;39;20809;-81
2022/10/20 17:03:57;;;;;;;15.13;11.87;;;15.10;99.90;;;;;;2613994;54;20406;-82
2022/10/20 17:09:45;;;;;;;16.70;11.90;;;15.10;99.90;;;;;;2616258;54;20114;-82
2022/10/20 17:15:33;;;;;;;15.17;12.17;;;15.10;99.90;;;;;;2615923;39;20526;-80
2022/10/20 17:21:21;;;;;;;15.20;11.23;;;15.10;99.90;;;;;;2614522;54;20162;-81
2022/10/20 17:27:08;;;;;;;16.57;12.37;;;15.10;99.90;;;;;;2614644;54;20171;-81
2022/10/20 17:32:56;;;;;;;13.03;11.43;;;15.20;99.90;;;;;;2613324;54;20138;-78
2022/10/20 17:38:44;;;;;;;19.50;10.63;;;15.20;99.90;;;;;;2615280;39;20586;-79
2022/10/20 17:44:31;;;;;;;19.30;11.73;;;15.10;99.90;;;;;;2612851;54;20158;-79
2022/10/20 17:50:19;;;;;;;13.50;10.47;;;15.10;99.90;;;;;;2615691;54;20274;-79
2022/10/20 17:56:10;;;;;;;17.60;11.27;;;15.10;99.90;;;;;;2614861;39;20519;-80
2022/10/20 18:02:11;;;;;;;12.97;10.77;;;15.20;99.90;;;;;;2614924;54;20383;-79
2022/10/20 18:07:58;;;;;;;15.07;11.20;;;15.20;99.90;;;;;;2615125;54;20161;-78
2022/10/20 18:13:46;;;;;;;14.80;10.80;;;15.20;99.90;;;;;;2612981;54;20127;-78
2022/10/20 18:19:33;;;;;;;12.30;10.33;;;15.40;99.90;;;;;;2615504;39;20510;-78
2022/10/20 18:25:20;;;;;;;20.70;11.73;;;15.40;99.90;;;;;;2612739;54;20384;-79
2022/10/20 18:31:11;;;;;;;14.37;9.70;;;15.40;99.90;;;;;;2613825;54;20387;-78
2022/10/20 18:37:02;;;;;;;13.00;10.33;;;15.40;99.90;;;;;;2612814;54;20416;-78
2022/10/20 18:42:50;;;;;;;15.30;10.80;;;15.30;99.90;;;;;;2614992;54;20357;-79
2022/10/20 18:48:39;;;;;;;12.53;11.27;;;15.30;99.90;;;;;;2615873;54;20131;-78
2022/10/20 18:54:27;;;;;;;16.07;10.60;;;15.40;99.90;;;;;;2615380;54;20372;-78
2022/10/20 19:00:15;;;;;;;15.73;10.37;;;15.50;99.90;;;;;;2613460;54;20422;-78
2022/10/20 19:06:08;;;;;;;11.20;9.80;;;15.50;99.90;;;;;;2614604;54;20177;-79
2022/10/20 19:11:56;;;;;;;14.83;10.77;;;15.60;99.90;;;;;;2614882;39;20777;-78
2022/10/20 19:17:44;;;;;;;11.90;9.40;;;15.60;99.90;;;;;;2616181;54;20134;-79
2022/10/20 19:23:34;;;;;;;13.60;10.90;;;15.60;99.90;;;;;;2615109;54;20142;-78
2022/10/20 19:29:22;;;;;;;16.23;9.30;;;15.60;99.90;;;;;;2613480;54;20418;-80
2022/10/20 19:35:10;;;;;;;11.17;9.13;;;15.50;99.90;;;;;;2616806;54;20125;-80
2022/10/20 19:40:58;;;;;;;11.03;9.87;;;15.50;99.90;;;;;;2617140;54;20114;-79
2022/10/20 19:46:48;;;;;;;13.07;9.37;;;15.50;99.90;;;;;;2614670;54;20689;-79
2022/10/20 19:52:35;;;;;;;13.20;9.03;;;15.40;99.90;;;;;;2617543;54;20388;-81
2022/10/20 19:58:23;;;;;;;14.70;9.70;;;15.40;99.90;;;;;;2617890;54;20134;-81
2022/10/20 20:04:12;;;;;;;10.07;8.73;;;15.40;99.90;;;;;;2617938;54;20189;-80
2022/10/20 20:07:31;;;;;;;13.97;8.90;;;15.40;99.90;;;;;;2615523;54;20975;-81
2022/10/20 20:13:20;;;;;;;17.53;9.43;;;15.50;99.90;;;;;;2616674;54;20971;-81
2022/10/20 20:19:07;;;;;;;12.77;9.20;;;15.50;99.90;;;;;;2614916;54;20542;-80
2022/10/20 20:24:55;;;;;;;8.47;7.53;;;15.40;99.90;;;;;;2616266;54;20419;-82
2022/10/20 20:34:04;;;;;;;9.70;8.70;;;15.50;99.90;;;;;;2616764;54;20412;-80
2022/10/20 20:39:51;;;;;;;11.97;7.97;;;15.50;99.90;;;;;;2615324;54;20134;-81
2022/10/20 20:45:38;;;;;;;9.40;7.00;;;15.50;99.90;;;;;;2617104;46;20166;-81
2022/10/20 20:51:27;;;;;;;12.47;7.90;;;15.90;99.90;;;;;;2616880;54;20134;-83
2022/10/20 20:57:15;;;;;;;10.13;8.33;;;15.90;99.90;;;;;;2616711;54;20471;-81
2022/10/20 21:03:03;;;;;;;9.13;6.90;;;15.90;99.90;;;;;;2617178;54;20178;-82
2022/10/20 21:08:52;;;;;;;15.63;8.83;;;15.80;99.90;;;;;;2616151;54;20166;-81
2022/10/20 21:14:40;;;;;;;16.63;9.37;;;16.00;99.90;;;;;;2616894;54;20390;-81
2022/10/20 21:20:28;;;;;;;13.33;7.17;;;15.90;99.90;;;;;;2613294;54;20130;-78
2022/10/20 21:26:18;;;;;;;12.00;7.50;;;16.10;99.90;;;;;;2616346;54;20134;-79
2022/10/20 21:32:05;;;;;;;16.47;8.93;;;15.90;99.90;;;;;;2615715;54;20398;-79
2022/10/20 21:37:53;;;;;;;12.83;8.53;;;16.00;99.90;;;;;;2615196;54;20165;-78
2022/10/20 21:43:43;;;;;;;14.27;7.70;;;15.90;99.90;;;;;;2615123;39;20506;-80
2022/10/20 21:49:32;;;;;;;9.53;8.53;;;16.00;99.90;;;;;;2615377;39;20849;-79
2022/10/20 21:55:20;;;;;;;9.73;7.97;;;15.80;99.90;;;;;;2618096;54;20384;-81
2022/10/20 21:57:46;;;;;;;9.30;8.00;;;15.90;99.90;;;;;;2618253;39;21316;-80
2022/10/20 22:00:11;;;;;;;14.77;9.27;;;15.90;99.90;;;;;;2617579;54;20647;-81
2022/10/20 22:02:57;;;;;;;12.20;8.17;;;15.80;99.90;;;;;;2619266;54;20702;-80
2022/10/20 22:05:23;;;;;;;12.27;8.50;;;15.80;99.90;;;;;;2619366;47;20706;-84
2022/10/20 22:11:14;;;;;;;14.50;9.93;;;15.80;99.90;;;;;;2617951;39;20410;-80
2022/10/20 22:17:03;;;;;;;10.63;9.40;;;15.90;99.90;;;;;;2617544;54;20387;-84
2022/10/20 22:22:51;;;;;;;11.93;9.30;;;15.90;99.90;;;;;;2615163;54;20383;-80
2022/10/20 22:28:39;;;;;;;9.50;8.10;;;16.00;99.90;;;;;;2615853;54;20150;-79
2022/10/20 22:34:26;;;;;;;11.77;8.47;;;16.00;99.90;;;;;;2616790;54;20371;-81
2022/10/20 22:40:14;;;;;;;17.87;8.20;;;16.10;99.90;;;;;;2617249;54;20226;-80
2022/10/20 22:46:03;;;;;;;16.90;8.47;;;16.20;99.90;;;;;;2619219;54;20648;-80
2022/10/20 22:51:51;;;;;;;13.63;9.13;;;16.20;99.90;;;;;;2618623;54;20905;-81
2022/10/20 22:57:39;;;;;;;11.10;8.97;;;16.40;99.90;;;;;;2618718;54;20154;-82
2022/10/20 23:07:32;;;;;;;13.10;8.10;;;16.50;99.90;;;;;;2616952;54;20378;-81
2022/10/20 23:13:20;;;;;;;15.70;8.07;;;16.60;99.90;;;;;;2616730;39;20774;-79
2022/10/20 23:19:08;;;;;;;18.37;10.70;;;16.60;99.90;;;;;;2616192;54;20143;-79
2022/10/20 23:24:56;;;;;;;15.00;9.00;;;16.50;99.90;;;;;;2615756;54;20181;-81
2022/10/20 23:30:44;;;;;;;15.23;9.37;;;16.40;99.90;;;;;;2615951;54;20150;-80
2022/10/20 23:36:31;;;;;;;26.30;10.70;;;16.30;99.90;;;;;;2616522;54;20142;-80
2022/10/20 23:42:19;;;;;;;11.77;10.53;;;16.10;99.90;;;;;;2616219;39;21304;-81
2022/10/20 23:48:07;;;;;;;18.00;12.27;;;16.00;99.90;;;;;;2614778;54;20157;-81
2022/10/20 23:53:55;;;;;;;13.93;11.50;;;15.80;99.90;;;;;;2615151;54;20154;-79
2022/10/20 23:59:43;;;;;;;14.90;11.83;;;15.70;99.90;;;;;;2616989;54;20382;-80
